createdAt,value
2022-11-30T00:01:24.652Z,20.60
2022-11-30T00:03:56.670Z,18.70
2022-11-30T00:09:01.158Z,18.75
2022-11-30T00:11:29.897Z,21.60
2022-11-30T00:14:00.011Z,20.33
2022-11-30T00:16:27.875Z,18.83
2022-11-30T00:18:55.186Z,18.70
2022-11-30T00:21:22.617Z,18.23
2022-11-30T00:23:51.520Z,19.00
2022-11-30T00:26:22.773Z,17.48
2022-11-30T00:28:50.864Z,17.13
2022-11-30T00:31:19.042Z,17.48
2022-11-30T00:33:46.784Z,15.52
2022-11-30T00:36:16.785Z,17.27
2022-11-30T00:38:44.867Z,16.17
2022-11-30T00:41:12.347Z,17.25
2022-11-30T00:43:39.867Z,15.93
2022-11-30T00:46:09.283Z,16.58
2022-11-30T00:48:40.893Z,18.00
2022-11-30T00:51:10.239Z,16.75
2022-11-30T00:53:38.080Z,17.48
2022-11-30T00:56:06.260Z,19.10
2022-11-30T00:58:33.981Z,17.48
2022-11-30T01:01:01.373Z,19.20
2022-11-30T01:03:28.781Z,17.95
2022-11-30T01:06:00.968Z,18.55
2022-11-30T01:08:28.527Z,18.20
2022-11-30T01:10:57.880Z,20.17
2022-11-30T01:13:25.197Z,19.35
2022-11-30T01:15:52.537Z,18.80
2022-11-30T01:18:19.872Z,20.30
2022-11-30T01:20:47.436Z,20.85
2022-11-30T01:23:14.697Z,26.60
2022-11-30T01:25:42.020Z,20.60
2022-11-30T01:28:10.537Z,21.90
2022-11-30T01:30:37.935Z,22.02
2022-11-30T01:33:06.162Z,24.52
2022-11-30T01:35:33.633Z,22.30
2022-11-30T01:38:00.941Z,22.05
2022-11-30T01:40:28.291Z,23.20
2022-11-30T01:42:55.628Z,25.45
2022-11-30T01:45:23.029Z,48.08
2022-11-30T01:47:56.733Z,28.13
2022-11-30T01:50:33.587Z,24.48
2022-11-30T01:53:03.453Z,26.70
2022-11-30T01:55:37.828Z,25.55
2022-11-30T01:58:15.500Z,24.75
2022-11-30T02:00:47.000Z,23.27
2022-11-30T02:03:24.831Z,24.23
2022-11-30T02:05:52.340Z,25.63
2022-11-30T02:08:20.374Z,23.02
2022-11-30T02:10:57.886Z,24.90
2022-11-30T02:13:39.539Z,21.60
2022-11-30T02:16:50.339Z,21.80
2022-11-30T02:19:57.633Z,23.33
2022-11-30T02:22:33.642Z,22.45
2022-11-30T02:25:17.257Z,24.20
2022-11-30T02:27:59.492Z,24.20
2022-11-30T02:30:27.182Z,21.10
2022-11-30T02:33:07.611Z,22.73
2022-11-30T02:35:39.006Z,25.50
2022-11-30T02:38:06.724Z,23.60
2022-11-30T02:40:34.031Z,23.70
2022-11-30T02:43:04.331Z,21.55
2022-11-30T02:45:59.189Z,22.60
2022-11-30T02:48:44.770Z,21.50
2022-11-30T02:51:18.177Z,22.90
2022-11-30T02:53:47.393Z,20.50
2022-11-30T02:56:14.856Z,22.20
2022-11-30T02:58:42.313Z,20.10
2022-11-30T03:01:09.719Z,20.70
2022-11-30T03:03:36.948Z,20.65
2022-11-30T03:06:04.355Z,23.13
2022-11-30T03:08:31.741Z,22.05
2022-11-30T03:11:03.400Z,23.15
2022-11-30T03:13:32.261Z,22.27
2022-11-30T03:16:06.174Z,21.30
2022-11-30T03:18:33.724Z,23.80
2022-11-30T03:21:01.126Z,23.15
2022-11-30T03:23:30.156Z,22.30
2022-11-30T03:26:00.194Z,23.60
2022-11-30T03:28:27.529Z,23.00
2022-11-30T03:30:54.832Z,21.55
2022-11-30T03:33:22.176Z,24.75
2022-11-30T03:35:49.510Z,25.58
2022-11-30T03:38:16.738Z,23.33
2022-11-30T03:40:43.934Z,22.38
2022-11-30T03:43:11.330Z,24.33
2022-11-30T03:45:38.547Z,24.33
2022-11-30T03:48:05.961Z,24.23
2022-11-30T03:50:33.203Z,24.35
2022-11-30T03:53:00.891Z,26.10
2022-11-30T03:55:28.093Z,21.40
2022-11-30T03:57:55.346Z,22.90
2022-11-30T04:00:22.690Z,22.02
2022-11-30T04:02:49.977Z,24.70
2022-11-30T04:05:17.361Z,22.50
2022-11-30T04:07:44.632Z,25.13
2022-11-30T04:10:12.227Z,23.98
2022-11-30T04:12:39.416Z,23.70
2022-11-30T04:15:07.311Z,26.13
2022-11-30T04:17:37.785Z,25.55
2022-11-30T04:20:05.906Z,23.08
2022-11-30T04:22:33.899Z,28.45
2022-11-30T04:25:01.217Z,28.08
2022-11-30T04:27:31.468Z,27.63
2022-11-30T04:29:58.772Z,24.10
2022-11-30T04:32:26.032Z,27.23
2022-11-30T04:34:53.242Z,26.60
2022-11-30T04:37:20.463Z,27.83
2022-11-30T04:39:47.910Z,26.10
2022-11-30T04:42:15.102Z,24.85
2022-11-30T04:44:42.327Z,27.58
2022-11-30T04:47:09.623Z,29.45
2022-11-30T04:49:36.937Z,32.53
2022-11-30T04:52:04.196Z,27.58
2022-11-30T04:54:31.468Z,31.73
2022-11-30T04:56:58.815Z,31.75
2022-11-30T04:59:25.998Z,30.77
2022-11-30T05:01:54.480Z,31.17
2022-11-30T05:04:21.763Z,31.13
2022-11-30T05:06:49.193Z,31.35
2022-11-30T05:09:16.472Z,32.75
2022-11-30T05:11:43.860Z,36.28
2022-11-30T05:14:11.102Z,34.75
2022-11-30T05:16:38.445Z,35.17
2022-11-30T05:19:05.784Z,32.38
2022-11-30T05:21:33.172Z,32.25
2022-11-30T05:24:00.490Z,33.20
2022-11-30T05:26:27.693Z,37.83
2022-11-30T05:28:55.360Z,32.55
2022-11-30T05:31:22.764Z,35.83
2022-11-30T05:33:51.268Z,36.60
2022-11-30T05:36:18.932Z,39.20
2022-11-30T05:38:46.830Z,35.03
2022-11-30T05:41:14.304Z,38.83
2022-11-30T05:43:41.640Z,40.17
2022-11-30T05:46:10.141Z,36.17
2022-11-30T05:48:38.169Z,39.58
2022-11-30T05:51:15.472Z,36.70
2022-11-30T05:53:46.869Z,45.17
2022-11-30T05:56:16.974Z,48.75
2022-11-30T05:58:45.291Z,48.67
2022-11-30T06:01:39.115Z,52.13
2022-11-30T06:04:08.833Z,41.60
2022-11-30T06:06:36.399Z,42.83
2022-11-30T06:09:03.702Z,42.80
2022-11-30T06:11:31.005Z,47.22
2022-11-30T06:13:58.280Z,44.28
2022-11-30T06:16:25.677Z,39.58
2022-11-30T06:18:53.551Z,41.72
2022-11-30T06:21:24.428Z,41.95
2022-11-30T06:23:52.887Z,37.63
2022-11-30T06:26:20.159Z,39.30
2022-11-30T06:28:48.802Z,40.40
2022-11-30T06:31:16.809Z,35.38
2022-11-30T06:33:44.204Z,37.88
2022-11-30T06:36:11.559Z,40.58
2022-11-30T06:38:38.938Z,45.22
2022-11-30T06:41:08.558Z,47.28
2022-11-30T06:43:39.721Z,42.80
2022-11-30T06:46:19.243Z,41.33
2022-11-30T06:48:50.003Z,37.95
2022-11-30T06:51:17.824Z,39.33
2022-11-30T06:53:46.043Z,37.63
2022-11-30T06:56:13.467Z,42.63
2022-11-30T06:58:41.913Z,40.83
2022-11-30T07:01:12.555Z,38.88
2022-11-30T07:03:40.943Z,37.47
2022-11-30T07:06:13.376Z,40.17
2022-11-30T07:08:41.075Z,40.85
2022-11-30T07:11:09.758Z,39.55
2022-11-30T07:13:37.414Z,38.60
2022-11-30T07:16:10.707Z,44.83
2022-11-30T07:18:38.177Z,41.40
2022-11-30T07:21:06.833Z,45.28
2022-11-30T07:23:56.356Z,41.65
2022-11-30T07:26:25.594Z,36.72
2022-11-30T07:28:58.872Z,44.42
2022-11-30T07:31:30.436Z,45.47
2022-11-30T07:33:59.217Z,45.95
2022-11-30T07:36:27.694Z,35.67
2022-11-30T07:38:55.016Z,46.90
2022-11-30T07:41:22.293Z,43.33
2022-11-30T07:43:49.638Z,41.08
2022-11-30T07:46:18.087Z,41.75
2022-11-30T07:48:46.698Z,39.97
2022-11-30T07:51:17.005Z,42.42
2022-11-30T07:53:44.534Z,41.35
2022-11-30T07:56:15.342Z,43.70
2022-11-30T07:58:43.428Z,47.67
2022-11-30T08:01:19.500Z,43.53
2022-11-30T08:03:47.102Z,42.20
2022-11-30T08:06:17.054Z,44.65
2022-11-30T08:08:46.017Z,48.60
2022-11-30T08:11:16.041Z,42.13
2022-11-30T08:13:43.838Z,40.95
2022-11-30T08:16:14.079Z,48.72
2022-11-30T08:18:42.298Z,41.50
2022-11-30T08:21:11.969Z,44.35
2022-11-30T08:23:41.695Z,42.08
2022-11-30T08:26:13.142Z,47.05
2022-11-30T08:28:43.280Z,43.42
2022-11-30T08:31:26.165Z,43.70
2022-11-30T08:33:58.089Z,44.30
2022-11-30T08:36:26.884Z,45.28
2022-11-30T08:38:54.501Z,45.38
2022-11-30T08:41:23.152Z,41.05
2022-11-30T08:43:50.897Z,41.97
2022-11-30T08:46:49.916Z,42.25
2022-11-30T08:49:24.913Z,43.45
2022-11-30T08:57:34.824Z,40.97
2022-11-30T09:00:05.870Z,39.85
2022-11-30T09:02:34.413Z,41.15
2022-11-30T09:05:01.703Z,42.97
2022-11-30T09:07:29.032Z,43.90
2022-11-30T09:09:56.526Z,41.58
2022-11-30T09:12:23.769Z,43.92
2022-11-30T09:14:57.208Z,47.53
2022-11-30T09:17:25.149Z,46.67
2022-11-30T09:19:52.413Z,48.13
2022-11-30T09:22:19.804Z,42.92
2022-11-30T09:24:47.476Z,44.40
2022-11-30T09:27:14.866Z,49.25
2022-11-30T09:29:42.778Z,47.53
2022-11-30T09:32:10.131Z,44.17
2022-11-30T09:34:37.959Z,41.65
2022-11-30T09:37:05.180Z,44.58
2022-11-30T09:39:32.917Z,38.17
2022-11-30T09:42:33.136Z,37.28
2022-11-30T09:45:25.169Z,38.70
2022-11-30T09:48:09.090Z,39.88
2022-11-30T09:50:42.946Z,33.55
2022-11-30T09:53:26.053Z,33.05
2022-11-30T09:55:56.712Z,33.85
2022-11-30T09:58:34.849Z,34.22
2022-11-30T10:01:06.895Z,35.03
2022-11-30T10:03:34.888Z,37.38
2022-11-30T10:06:11.321Z,34.80
2022-11-30T10:09:09.680Z,41.03
2022-11-30T10:11:39.727Z,37.83
2022-11-30T10:14:35.972Z,36.17
2022-11-30T10:17:09.398Z,32.13
2022-11-30T10:20:20.303Z,35.70
2022-11-30T10:22:56.487Z,34.95
2022-11-30T10:25:33.643Z,34.38
2022-11-30T10:28:44.982Z,35.00
2022-11-30T10:31:03.476Z,33.03
2022-11-30T10:33:48.060Z,34.08
2022-11-30T10:36:26.878Z,38.42
2022-11-30T10:38:59.291Z,35.45
2022-11-30T10:41:43.533Z,32.33
2022-11-30T10:44:18.647Z,34.85
2022-11-30T10:47:13.883Z,33.42
2022-11-30T10:49:48.579Z,34.10
2022-11-30T10:52:41.288Z,36.38
2022-11-30T10:55:18.520Z,32.35
2022-11-30T10:57:48.279Z,32.78
2022-11-30T11:00:18.851Z,33.55
2022-11-30T11:02:48.494Z,36.05
2022-11-30T11:05:27.709Z,33.78
2022-11-30T11:08:07.230Z,34.10
2022-11-30T11:10:43.463Z,31.58
2022-11-30T11:13:39.909Z,34.28
2022-11-30T11:16:10.227Z,33.53
2022-11-30T11:18:54.868Z,32.92
2022-11-30T11:21:23.877Z,40.33
2022-11-30T11:23:54.732Z,38.10
2022-11-30T11:26:25.759Z,34.60
2022-11-30T11:28:56.257Z,34.40
2022-11-30T11:31:49.138Z,36.10
2022-11-30T11:34:31.978Z,35.08
2022-11-30T11:37:07.478Z,33.50
2022-11-30T11:39:34.790Z,34.03
2022-11-30T11:42:04.070Z,32.50
2022-11-30T11:44:32.135Z,33.85
2022-11-30T11:47:06.328Z,35.45
2022-11-30T11:49:37.090Z,31.25
2022-11-30T11:52:14.687Z,31.23
2022-11-30T11:54:49.717Z,34.25
2022-11-30T11:57:20.443Z,36.13
2022-11-30T12:00:03.407Z,34.20
2022-11-30T12:02:50.842Z,37.47
2022-11-30T12:05:53.842Z,40.22
2022-11-30T12:08:49.001Z,36.45
2022-11-30T12:11:21.519Z,34.60
2022-11-30T12:13:49.224Z,38.00
2022-11-30T12:16:35.275Z,34.45
2022-11-30T12:19:22.085Z,36.05
2022-11-30T12:22:27.027Z,32.15
2022-11-30T12:25:19.744Z,34.78
2022-11-30T12:28:25.329Z,34.38
2022-11-30T12:30:58.545Z,34.67
2022-11-30T12:33:43.850Z,33.05
2022-11-30T12:36:29.570Z,32.08
2022-11-30T12:39:08.149Z,32.42
2022-11-30T12:41:49.809Z,34.67
2022-11-30T12:44:36.903Z,32.13
2022-11-30T12:47:22.668Z,32.35
2022-11-30T12:50:02.394Z,32.25
2022-11-30T12:53:02.659Z,33.10
2022-11-30T12:55:54.241Z,35.65
2022-11-30T12:58:45.394Z,30.58
2022-11-30T13:01:46.550Z,34.10
2022-11-30T13:04:25.530Z,32.65
2022-11-30T13:06:56.463Z,32.72
2022-11-30T13:09:30.300Z,33.78
2022-11-30T13:12:10.034Z,31.20
2022-11-30T13:14:38.042Z,36.05
2022-11-30T13:17:17.305Z,33.95
2022-11-30T13:19:57.043Z,33.40
2022-11-30T13:22:46.558Z,34.03
2022-11-30T13:26:07.232Z,35.03
2022-11-30T13:28:41.067Z,33.85
2022-11-30T13:31:47.108Z,34.80
2022-11-30T13:34:26.622Z,36.90
2022-11-30T13:37:25.931Z,36.67
2022-11-30T13:39:56.454Z,34.20
2022-11-30T13:42:31.607Z,39.17
2022-11-30T13:45:14.187Z,38.75
2022-11-30T13:47:46.909Z,35.97
2022-11-30T13:50:32.005Z,35.40
2022-11-30T13:53:17.291Z,31.73
2022-11-30T13:55:56.870Z,33.47
2022-11-30T13:58:24.848Z,33.58
2022-11-30T14:01:04.228Z,31.63
2022-11-30T14:03:33.024Z,32.58
2022-11-30T14:06:04.754Z,33.97
2022-11-30T14:08:37.876Z,33.00
2022-11-30T14:11:56.537Z,34.92
2022-11-30T14:14:45.638Z,35.83
2022-11-30T14:17:23.464Z,30.90
2022-11-30T14:19:54.075Z,33.28
2022-11-30T14:22:21.946Z,35.92
2022-11-30T14:24:50.230Z,32.85
2022-11-30T14:27:29.538Z,35.08
2022-11-30T14:30:02.225Z,33.92
2022-11-30T14:32:42.812Z,31.77
2022-11-30T14:35:14.038Z,32.78
2022-11-30T14:37:53.758Z,35.65
2022-11-30T14:40:24.585Z,40.38
2022-11-30T14:42:56.096Z,37.53
2022-11-30T14:45:29.323Z,34.28
2022-11-30T14:48:10.758Z,35.33
2022-11-30T14:50:54.154Z,35.03
2022-11-30T14:53:42.222Z,34.28
2022-11-30T14:56:16.700Z,33.95
2022-11-30T14:59:28.525Z,36.10
2022-11-30T15:01:59.015Z,33.28
2022-11-30T15:04:28.011Z,33.50
2022-11-30T15:06:57.021Z,34.90
2022-11-30T15:09:32.450Z,34.13
2022-11-30T15:12:00.150Z,36.60
2022-11-30T15:14:27.488Z,34.20
2022-11-30T15:16:57.327Z,41.42
2022-11-30T15:19:27.557Z,36.92
2022-11-30T15:21:57.045Z,36.95
2022-11-30T15:24:25.003Z,34.05
2022-11-30T15:27:10.588Z,35.10
2022-11-30T15:29:50.845Z,33.47
2022-11-30T15:32:23.261Z,36.80
2022-11-30T15:34:56.343Z,34.33
2022-11-30T15:37:37.970Z,35.70
2022-11-30T15:40:09.085Z,34.13
2022-11-30T15:42:43.527Z,33.67
2022-11-30T15:45:24.708Z,31.92
2022-11-30T15:47:53.360Z,34.37
2022-11-30T15:50:28.329Z,33.80
2022-11-30T15:52:58.744Z,33.33
2022-11-30T15:55:48.555Z,31.42
2022-11-30T15:58:33.879Z,34.30
2022-11-30T16:01:24.602Z,37.17
2022-11-30T16:04:06.649Z,31.08
2022-11-30T16:06:46.436Z,35.67
2022-11-30T16:09:20.350Z,34.00
2022-11-30T16:11:53.785Z,54.00
2022-11-30T16:14:21.097Z,35.13
2022-11-30T16:16:48.610Z,32.15
2022-11-30T16:19:16.235Z,31.67
2022-11-30T16:21:43.850Z,38.95
2022-11-30T16:24:15.228Z,37.70
2022-11-30T16:26:50.922Z,40.57
2022-11-30T16:29:20.193Z,48.03
2022-11-30T16:31:48.225Z,35.47
2022-11-30T16:34:15.649Z,35.85
2022-11-30T16:36:42.964Z,34.42
2022-11-30T16:39:13.064Z,32.83
2022-11-30T16:41:40.584Z,34.58
2022-11-30T16:44:13.449Z,37.40
2022-11-30T16:46:40.735Z,39.42
2022-11-30T16:49:08.763Z,39.88
2022-11-30T16:51:36.511Z,37.60
2022-11-30T16:54:04.508Z,39.88
2022-11-30T16:56:31.813Z,36.90
2022-11-30T16:58:59.226Z,39.70
2022-11-30T17:01:34.550Z,36.75
2022-11-30T17:04:12.063Z,36.58
2022-11-30T17:06:39.671Z,51.03
2022-11-30T17:09:13.678Z,42.72
2022-11-30T17:11:41.670Z,39.22
2022-11-30T17:14:12.769Z,41.58
2022-11-30T17:16:40.523Z,38.33
2022-11-30T17:19:08.271Z,39.67
2022-11-30T17:21:37.865Z,39.60
2022-11-30T17:24:06.405Z,41.58
2022-11-30T17:26:33.856Z,45.67
2022-11-30T17:29:01.342Z,43.42
2022-11-30T17:31:28.764Z,42.65
2022-11-30T17:33:56.104Z,39.85
2022-11-30T17:36:23.621Z,36.92
2022-11-30T17:38:51.221Z,36.88
2022-11-30T17:41:20.082Z,36.78
2022-11-30T17:43:48.718Z,36.88
2022-11-30T17:46:18.370Z,37.00
2022-11-30T17:48:46.037Z,39.30
2022-11-30T17:51:13.824Z,39.20
2022-11-30T17:53:42.355Z,39.70
2022-11-30T17:56:15.758Z,40.70
2022-11-30T17:58:44.878Z,36.35
2022-11-30T18:01:32.576Z,37.33
2022-11-30T18:04:00.830Z,36.78
2022-11-30T18:06:28.938Z,40.33
2022-11-30T18:08:58.077Z,40.75
2022-11-30T18:11:26.562Z,42.20
2022-11-30T18:13:56.266Z,38.05
2022-11-30T18:16:29.733Z,39.63
2022-11-30T18:18:58.709Z,39.65
2022-11-30T18:21:28.972Z,44.17
2022-11-30T18:23:57.820Z,42.60
2022-11-30T18:26:26.831Z,40.45
2022-11-30T18:28:56.668Z,45.78
2022-11-30T18:31:24.833Z,40.85
2022-11-30T18:33:57.355Z,39.53
2022-11-30T18:36:25.033Z,42.58
2022-11-30T18:38:52.745Z,38.33
2022-11-30T18:41:20.152Z,37.13
2022-11-30T18:43:47.359Z,44.22
2022-11-30T18:46:15.024Z,42.35
2022-11-30T18:48:42.645Z,40.78
2022-11-30T18:51:21.986Z,46.90
2022-11-30T18:53:49.551Z,49.05
2022-11-30T18:56:19.266Z,38.83
2022-11-30T18:58:47.757Z,43.33
2022-11-30T19:01:20.968Z,42.78
2022-11-30T19:03:59.502Z,41.08
2022-11-30T19:06:29.593Z,39.47
2022-11-30T19:08:57.628Z,39.85
2022-11-30T19:11:25.728Z,39.53
2022-11-30T19:13:57.615Z,33.88
2022-11-30T19:18:53.651Z,37.58
2022-11-30T19:21:22.279Z,38.40
2022-11-30T19:23:50.203Z,38.00
2022-11-30T19:26:17.729Z,35.92
2022-11-30T19:28:45.968Z,36.83
2022-11-30T19:31:18.509Z,35.45
2022-11-30T19:33:48.764Z,34.90
2022-11-30T19:36:18.736Z,33.47
2022-11-30T19:38:46.346Z,35.40
2022-11-30T19:41:15.447Z,36.72
2022-11-30T19:43:47.762Z,36.92
2022-11-30T19:46:17.573Z,36.65
2022-11-30T19:48:45.206Z,35.47
2022-11-30T19:51:18.110Z,31.85
2022-11-30T19:53:46.373Z,36.83
2022-11-30T19:56:16.639Z,39.08
2022-11-30T19:58:46.556Z,36.70
2022-11-30T20:01:14.663Z,36.78
2022-11-30T20:03:44.287Z,35.35
2022-11-30T20:06:12.267Z,32.55
2022-11-30T20:08:40.132Z,32.85
2022-11-30T20:11:08.696Z,37.72
2022-11-30T20:13:36.228Z,35.15
2022-11-30T20:16:23.007Z,41.83
2022-11-30T20:18:57.786Z,35.60
2022-11-30T20:21:27.302Z,41.60
2022-11-30T20:23:58.274Z,38.55
2022-11-30T20:26:31.524Z,36.53
2022-11-30T20:29:03.429Z,35.45
2022-11-30T20:33:59.335Z,34.97
2022-11-30T20:36:26.589Z,37.63
2022-11-30T20:38:54.204Z,37.95
2022-11-30T20:41:23.796Z,38.25
2022-11-30T20:43:51.281Z,38.63
2022-11-30T20:46:25.802Z,43.42
2022-11-30T20:48:54.407Z,43.63
2022-11-30T20:51:31.848Z,43.70
2022-11-30T20:54:01.953Z,38.60
2022-11-30T20:56:29.277Z,36.45
2022-11-30T20:58:56.884Z,35.67
2022-11-30T21:01:24.250Z,37.40
2022-11-30T21:03:51.600Z,35.65
2022-11-30T21:06:18.902Z,36.85
2022-11-30T21:08:46.227Z,35.58
2022-11-30T21:11:16.501Z,38.92
2022-11-30T21:13:45.649Z,36.63
2022-11-30T21:16:15.997Z,38.17
2022-11-30T21:18:45.614Z,35.38
2022-11-30T21:21:18.928Z,43.45
2022-11-30T21:23:47.354Z,37.33
2022-11-30T21:26:24.263Z,35.67
2022-11-30T21:28:55.952Z,36.67
2022-11-30T21:31:23.796Z,35.90
2022-11-30T21:33:53.652Z,33.38
2022-11-30T21:36:22.546Z,35.75
2022-11-30T21:39:04.407Z,34.10
2022-11-30T21:41:33.663Z,34.15
2022-11-30T21:44:01.006Z,33.33
2022-11-30T21:46:28.322Z,35.45
2022-11-30T21:48:55.627Z,34.42
2022-11-30T21:51:25.455Z,34.35
2022-11-30T21:53:57.317Z,32.13
2022-11-30T21:56:33.789Z,32.65
2022-11-30T21:59:01.190Z,38.25
2022-11-30T22:01:34.758Z,39.42
2022-11-30T22:04:03.701Z,38.78
2022-11-30T22:06:33.378Z,35.45
2022-11-30T22:09:07.788Z,36.88
2022-11-30T22:11:38.380Z,39.30
2022-11-30T22:14:06.972Z,39.78
2022-11-30T22:16:37.243Z,41.33
2022-11-30T22:19:06.365Z,36.17
2022-11-30T22:21:34.246Z,34.13
2022-11-30T22:24:07.279Z,32.85
2022-11-30T22:26:37.273Z,33.97
2022-11-30T22:29:16.353Z,36.80
2022-11-30T22:31:46.557Z,34.13
2022-11-30T22:34:14.223Z,34.33
2022-11-30T22:36:43.448Z,29.40
2022-11-30T22:39:13.316Z,31.85
2022-11-30T22:41:42.929Z,33.30
2022-11-30T22:44:14.865Z,30.15
2022-11-30T22:49:20.820Z,32.05
2022-11-30T22:51:49.708Z,32.45
2022-11-30T22:54:17.087Z,31.02
2022-11-30T22:56:46.440Z,53.63
2022-11-30T22:59:14.712Z,36.65
2022-11-30T23:01:47.602Z,30.42
2022-11-30T23:04:17.459Z,28.73
2022-11-30T23:06:46.260Z,30.17
2022-11-30T23:09:20.388Z,31.25
2022-11-30T23:11:48.626Z,32.90
2022-11-30T23:14:16.639Z,29.23
2022-11-30T23:16:45.153Z,31.40
2022-11-30T23:19:13.382Z,29.23
2022-11-30T23:21:42.703Z,30.35
2022-11-30T23:24:14.551Z,32.35
2022-11-30T23:26:43.134Z,29.85
2022-11-30T23:29:13.706Z,31.17
2022-11-30T23:31:43.568Z,33.47
2022-11-30T23:34:14.352Z,34.20
2022-11-30T23:36:41.660Z,36.80
2022-11-30T23:39:11.664Z,36.33
2022-11-30T23:41:39.523Z,35.20
2022-11-30T23:44:07.541Z,32.22
2022-11-30T23:46:35.240Z,36.03
2022-11-30T23:49:03.157Z,32.95
2022-11-30T23:51:30.563Z,31.38
2022-11-30T23:53:57.788Z,28.70
2022-11-30T23:56:25.085Z,28.65
2022-11-30T23:58:52.910Z,27.70
